Solana Beach, California
Current Conditions -  °F | °C
As of 7:55 AM on Friday 24 Oct 2014 (Local Time) from KNKX Reporting Station
Clear Clear  
Wind Chill: 20°   Ceiling: Unl
Heat Index: 20°   Visibility: 10mi
Dew Point:   Wind: 7mph
Humidity: 37%   Direction: 70°ENE
Pressure: 29.98"   Gusts: NA
Location:  32.98°N, 117.27°W
Report Text: KNKX 241455Z 07006KT 10SM CLR 20/05 A2998 RMK AO2 SLP146 T02000050 53007
Loading
Personal Weather Stations






























Interactive Weather Map
Tropical Storm Tracking
New forecast layout! Learn more

10-Day Weather Forecast

Advertisements
Track Severe Weather on mobile